sensor_id;sensor_type;location;lat;lon;timestamp;P1;durP1;ratioP1;P2;durP2;ratioP2
4698;SDS011;33708;49.466;11.176;2023-02-13T00:01:28;17.07;;;6.40;;
4698;SDS011;33708;49.466;11.176;2023-02-13T00:03:53;17.80;;;6.70;;
4698;SDS011;33708;49.466;11.176;2023-02-13T00:06:19;17.13;;;7.97;;
4698;SDS011;33708;49.466;11.176;2023-02-13T00:08:45;14.97;;;6.60;;
4698;SDS011;33708;49.466;11.176;2023-02-13T00:11:10;14.50;;;5.97;;
4698;SDS011;33708;49.466;11.176;2023-02-13T00:13:36;14.03;;;5.77;;
4698;SDS011;33708;49.466;11.176;2023-02-13T00:16:02;13.77;;;5.63;;
4698;SDS011;33708;49.466;11.176;2023-02-13T00:18:31;11.80;;;5.07;;
4698;SDS011;33708;49.466;11.176;2023-02-13T00:20:59;13.30;;;5.47;;
4698;SDS011;33708;49.466;11.176;2023-02-13T00:23:28;10.30;;;3.97;;
4698;SDS011;33708;49.466;11.176;2023-02-13T00:25:54;13.33;;;4.50;;
4698;SDS011;33708;49.466;11.176;2023-02-13T00:28:20;14.90;;;4.17;;
4698;SDS011;33708;49.466;11.176;2023-02-13T00:30:45;13.73;;;5.77;;
4698;SDS011;33708;49.466;11.176;2023-02-13T00:33:11;15.37;;;5.43;;
4698;SDS011;33708;49.466;11.176;2023-02-13T00:35:37;12.23;;;4.87;;
4698;SDS011;33708;49.466;11.176;2023-02-13T00:38:02;19.60;;;8.70;;
4698;SDS011;33708;49.466;11.176;2023-02-13T00:40:28;17.07;;;7.43;;
4698;SDS011;33708;49.466;11.176;2023-02-13T00:42:53;16.00;;;6.17;;
4698;SDS011;33708;49.466;11.176;2023-02-13T00:45:19;14.17;;;6.10;;
4698;SDS011;33708;49.466;11.176;2023-02-13T00:47:44;12.70;;;5.63;;
4698;SDS011;33708;49.466;11.176;2023-02-13T00:50:10;14.43;;;6.10;;
4698;SDS011;33708;49.466;11.176;2023-02-13T00:52:36;14.03;;;6.07;;
4698;SDS011;33708;49.466;11.176;2023-02-13T00:55:01;18.47;;;7.60;;
4698;SDS011;33708;49.466;11.176;2023-02-13T00:57:27;16.97;;;7.30;;
4698;SDS011;33708;49.466;11.176;2023-02-13T00:59:55;14.23;;;6.20;;
4698;SDS011;33708;49.466;11.176;2023-02-13T01:02:20;20.60;;;10.53;;
4698;SDS011;33708;49.466;11.176;2023-02-13T01:04:46;22.23;;;9.60;;
4698;SDS011;33708;49.466;11.176;2023-02-13T01:07:12;18.90;;;9.13;;
4698;SDS011;33708;49.466;11.176;2023-02-13T01:09:37;15.80;;;7.40;;
4698;SDS011;33708;49.466;11.176;2023-02-13T01:12:03;22.80;;;7.20;;
4698;SDS011;33708;49.466;11.176;2023-02-13T01:14:29;11.80;;;4.97;;
4698;SDS011;33708;49.466;11.176;2023-02-13T01:16:54;10.80;;;4.53;;
4698;SDS011;33708;49.466;11.176;2023-02-13T01:19:20;12.33;;;4.70;;
4698;SDS011;33708;49.466;11.176;2023-02-13T01:21:46;12.37;;;3.93;;
4698;SDS011;33708;49.466;11.176;2023-02-13T01:24:12;12.60;;;5.00;;
4698;SDS011;33708;49.466;11.176;2023-02-13T01:26:38;19.70;;;6.80;;
4698;SDS011;33708;49.466;11.176;2023-02-13T01:29:04;11.20;;;4.20;;
4698;SDS011;33708;49.466;11.176;2023-02-13T01:31:30;15.13;;;7.10;;
4698;SDS011;33708;49.466;11.176;2023-02-13T01:33:56;21.57;;;11.87;;
4698;SDS011;33708;49.466;11.176;2023-02-13T01:36:23;14.97;;;6.60;;
4698;SDS011;33708;49.466;11.176;2023-02-13T01:38:53;21.93;;;10.77;;
4698;SDS011;33708;49.466;11.176;2023-02-13T01:41:21;21.17;;;9.13;;
4698;SDS011;33708;49.466;11.176;2023-02-13T01:43:52;25.30;;;13.30;;
4698;SDS011;33708;49.466;11.176;2023-02-13T01:49:06;21.70;;;9.80;;
4698;SDS011;33708;49.466;11.176;2023-02-13T01:51:37;21.10;;;10.30;;
4698;SDS011;33708;49.466;11.176;2023-02-13T01:54:12;18.30;;;9.57;;
4698;SDS011;33708;49.466;11.176;2023-02-13T01:56:46;21.30;;;9.93;;
4698;SDS011;33708;49.466;11.176;2023-02-13T01:59:16;19.30;;;9.70;;
4698;SDS011;33708;49.466;11.176;2023-02-13T02:01:48;23.47;;;10.80;;
4698;SDS011;33708;49.466;11.176;2023-02-13T02:06:51;20.87;;;10.77;;
4698;SDS011;33708;49.466;11.176;2023-02-13T02:09:25;23.37;;;11.83;;
4698;SDS011;33708;49.466;11.176;2023-02-13T02:14:26;25.73;;;12.30;;
4698;SDS011;33708;49.466;11.176;2023-02-13T02:16:52;22.77;;;10.00;;
4698;SDS011;33708;49.466;11.176;2023-02-13T02:19:22;21.40;;;11.23;;
4698;SDS011;33708;49.466;11.176;2023-02-13T02:22:29;11.93;;;5.40;;
4698;SDS011;33708;49.466;11.176;2023-02-13T02:36:30;25.50;;;10.57;;
4698;SDS011;33708;49.466;11.176;2023-02-13T02:39:27;19.97;;;9.23;;
4698;SDS011;33708;49.466;11.176;2023-02-13T02:42:08;23.90;;;11.90;;
4698;SDS011;33708;49.466;11.176;2023-02-13T02:47:20;24.00;;;10.80;;
4698;SDS011;33708;49.466;11.176;2023-02-13T02:55:37;29.50;;;13.10;;
4698;SDS011;33708;49.466;11.176;2023-02-13T02:58:30;29.30;;;13.30;;
4698;SDS011;33708;49.466;11.176;2023-02-13T03:01:21;21.47;;;11.50;;
4698;SDS011;33708;49.466;11.176;2023-02-13T03:04:13;39.63;;;12.50;;
4698;SDS011;33708;49.466;11.176;2023-02-13T03:07:26;160.30;;;13.70;;
4698;SDS011;33708;49.466;11.176;2023-02-13T03:09:55;38.20;;;12.57;;
4698;SDS011;33708;49.466;11.176;2023-02-13T03:12:43;135.27;;;13.30;;
4698;SDS011;33708;49.466;11.176;2023-02-13T03:15:34;55.80;;;12.20;;
4698;SDS011;33708;49.466;11.176;2023-02-13T03:18:21;67.60;;;13.63;;
4698;SDS011;33708;49.466;11.176;2023-02-13T03:21:09;36.07;;;11.23;;
4698;SDS011;33708;49.466;11.176;2023-02-13T03:24:06;81.13;;;10.60;;
4698;SDS011;33708;49.466;11.176;2023-02-13T03:27:05;100.03;;;11.73;;
4698;SDS011;33708;49.466;11.176;2023-02-13T03:30:12;32.83;;;9.37;;
4698;SDS011;33708;49.466;11.176;2023-02-13T03:32:51;131.43;;;13.03;;
4698;SDS011;33708;49.466;11.176;2023-02-13T03:38:38;120.63;;;13.50;;
4698;SDS011;33708;49.466;11.176;2023-02-13T03:43:51;35.90;;;8.90;;
4698;SDS011;33708;49.466;11.176;2023-02-13T03:46:26;35.27;;;10.00;;
4698;SDS011;33708;49.466;11.176;2023-02-13T03:48:55;51.83;;;10.27;;
4698;SDS011;33708;49.466;11.176;2023-02-13T03:51:48;103.57;;;11.50;;
4698;SDS011;33708;49.466;11.176;2023-02-13T03:54:50;34.90;;;10.03;;
4698;SDS011;33708;49.466;11.176;2023-02-13T03:57:40;139.27;;;13.27;;
4698;SDS011;33708;49.466;11.176;2023-02-13T04:00:27;119.33;;;13.80;;
4698;SDS011;33708;49.466;11.176;2023-02-13T04:05:31;61.33;;;11.60;;
4698;SDS011;33708;49.466;11.176;2023-02-13T04:08:03;74.83;;;10.30;;
4698;SDS011;33708;49.466;11.176;2023-02-13T04:10:29;21.53;;;10.00;;
4698;SDS011;33708;49.466;11.176;2023-02-13T04:13:02;72.93;;;10.40;;
4698;SDS011;33708;49.466;11.176;2023-02-13T04:15:45;31.90;;;8.77;;
4698;SDS011;33708;49.466;11.176;2023-02-13T04:18:19;55.00;;;10.40;;
4698;SDS011;33708;49.466;11.176;2023-02-13T04:20:51;43.10;;;10.17;;
4698;SDS011;33708;49.466;11.176;2023-02-13T04:23:17;63.70;;;10.47;;
4698;SDS011;33708;49.466;11.176;2023-02-13T04:25:44;19.00;;;8.90;;
4698;SDS011;33708;49.466;11.176;2023-02-13T04:28:14;68.03;;;9.90;;
4698;SDS011;33708;49.466;11.176;2023-02-13T04:30:40;54.43;;;9.63;;
4698;SDS011;33708;49.466;11.176;2023-02-13T04:33:05;59.67;;;9.77;;
4698;SDS011;33708;49.466;11.176;2023-02-13T04:35:31;90.67;;;10.17;;
4698;SDS011;33708;49.466;11.176;2023-02-13T04:37:57;44.10;;;8.70;;
4698;SDS011;33708;49.466;11.176;2023-02-13T04:40:22;62.03;;;10.27;;
4698;SDS011;33708;49.466;11.176;2023-02-13T04:42:48;83.57;;;10.50;;
4698;SDS011;33708;49.466;11.176;2023-02-13T04:45:14;54.17;;;9.77;;
4698;SDS011;33708;49.466;11.176;2023-02-13T04:47:40;46.20;;;9.33;;
4698;SDS011;33708;49.466;11.176;2023-02-13T04:50:06;31.03;;;9.00;;
4698;SDS011;33708;49.466;11.176;2023-02-13T04:52:32;19.03;;;9.57;;
4698;SDS011;33708;49.466;11.176;2023-02-13T04:54:57;23.27;;;8.90;;
4698;SDS011;33708;49.466;11.176;2023-02-13T04:57:23;73.07;;;11.27;;
4698;SDS011;33708;49.466;11.176;2023-02-13T04:59:48;25.50;;;9.03;;
4698;SDS011;33708;49.466;11.176;2023-02-13T05:02:14;62.80;;;10.63;;
4698;SDS011;33708;49.466;11.176;2023-02-13T05:04:39;29.97;;;9.17;;
4698;SDS011;33708;49.466;11.176;2023-02-13T05:07:05;96.10;;;11.00;;
4698;SDS011;33708;49.466;11.176;2023-02-13T05:09:30;61.03;;;10.27;;
4698;SDS011;33708;49.466;11.176;2023-02-13T05:11:56;94.33;;;12.23;;
4698;SDS011;33708;49.466;11.176;2023-02-13T05:14:22;47.23;;;10.20;;
4698;SDS011;33708;49.466;11.176;2023-02-13T05:16:47;49.70;;;10.57;;
4698;SDS011;33708;49.466;11.176;2023-02-13T05:19:16;74.67;;;10.77;;
4698;SDS011;33708;49.466;11.176;2023-02-13T05:21:42;178.50;;;14.17;;
4698;SDS011;33708;49.466;11.176;2023-02-13T05:24:26;103.90;;;11.40;;
4698;SDS011;33708;49.466;11.176;2023-02-13T05:26:52;98.23;;;11.13;;
4698;SDS011;33708;49.466;11.176;2023-02-13T05:29:17;216.97;;;14.17;;
4698;SDS011;33708;49.466;11.176;2023-02-13T05:31:44;211.17;;;14.53;;
4698;SDS011;33708;49.466;11.176;2023-02-13T05:34:13;266.17;;;13.93;;
4698;SDS011;33708;49.466;11.176;2023-02-13T05:36:39;243.93;;;15.50;;
4698;SDS011;33708;49.466;11.176;2023-02-13T05:39:05;167.03;;;12.23;;
4698;SDS011;33708;49.466;11.176;2023-02-13T05:41:31;120.37;;;10.57;;
4698;SDS011;33708;49.466;11.176;2023-02-13T05:43:57;49.10;;;9.73;;
4698;SDS011;33708;49.466;11.176;2023-02-13T05:46:23;28.77;;;8.20;;
4698;SDS011;33708;49.466;11.176;2023-02-13T05:48:48;227.93;;;15.37;;
4698;SDS011;33708;49.466;11.176;2023-02-13T05:51:15;420.03;;;17.80;;
4698;SDS011;33708;49.466;11.176;2023-02-13T05:53:40;100.67;;;11.10;;
4698;SDS011;33708;49.466;11.176;2023-02-13T05:56:06;467.73;;;19.57;;
4698;SDS011;33708;49.466;11.176;2023-02-13T05:58:32;220.20;;;13.87;;
4698;SDS011;33708;49.466;11.176;2023-02-13T06:00:58;226.27;;;12.57;;
4698;SDS011;33708;49.466;11.176;2023-02-13T06:03:25;148.77;;;9.90;;
4698;SDS011;33708;49.466;11.176;2023-02-13T06:05:52;268.53;;;15.43;;
4698;SDS011;33708;49.466;11.176;2023-02-13T06:08:19;26.40;;;8.83;;
4698;SDS011;33708;49.466;11.176;2023-02-13T06:10:45;550.27;;;20.67;;
4698;SDS011;33708;49.466;11.176;2023-02-13T06:13:12;52.23;;;8.33;;
4698;SDS011;33708;49.466;11.176;2023-02-13T06:15:38;184.97;;;12.10;;
4698;SDS011;33708;49.466;11.176;2023-02-13T06:18:04;135.30;;;12.27;;
4698;SDS011;33708;49.466;11.176;2023-02-13T06:20:29;243.13;;;14.10;;
4698;SDS011;33708;49.466;11.176;2023-02-13T06:22:55;374.57;;;19.03;;
4698;SDS011;33708;49.466;11.176;2023-02-13T06:25:21;401.77;;;27.17;;
4698;SDS011;33708;49.466;11.176;2023-02-13T06:27:46;234.60;;;14.30;;
4698;SDS011;33708;49.466;11.176;2023-02-13T06:30:12;336.67;;;16.03;;
4698;SDS011;33708;49.466;11.176;2023-02-13T06:32:39;300.43;;;15.23;;
4698;SDS011;33708;49.466;11.176;2023-02-13T06:35:05;352.67;;;16.17;;
4698;SDS011;33708;49.466;11.176;2023-02-13T06:37:31;139.57;;;10.03;;
4698;SDS011;33708;49.466;11.176;2023-02-13T06:39:57;196.33;;;12.70;;
4698;SDS011;33708;49.466;11.176;2023-02-13T06:42:22;324.77;;;14.03;;
4698;SDS011;33708;49.466;11.176;2023-02-13T06:44:48;158.90;;;11.57;;
4698;SDS011;33708;49.466;11.176;2023-02-13T06:47:13;110.87;;;11.90;;
4698;SDS011;33708;49.466;11.176;2023-02-13T06:49:39;43.67;;;8.60;;
4698;SDS011;33708;49.466;11.176;2023-02-13T06:52:05;115.40;;;10.33;;
4698;SDS011;33708;49.466;11.176;2023-02-13T06:54:30;15.83;;;7.27;;
4698;SDS011;33708;49.466;11.176;2023-02-13T06:56:56;230.53;;;13.80;;
4698;SDS011;33708;49.466;11.176;2023-02-13T06:59:22;103.13;;;10.63;;
4698;SDS011;33708;49.466;11.176;2023-02-13T07:01:47;159.33;;;13.23;;
4698;SDS011;33708;49.466;11.176;2023-02-13T07:04:13;75.00;;;11.03;;
4698;SDS011;33708;49.466;11.176;2023-02-13T07:06:38;117.43;;;11.07;;
4698;SDS011;33708;49.466;11.176;2023-02-13T07:09:04;65.33;;;11.17;;
4698;SDS011;33708;49.466;11.176;2023-02-13T07:11:30;456.53;;;16.77;;
4698;SDS011;33708;49.466;11.176;2023-02-13T07:13:55;303.57;;;14.87;;
4698;SDS011;33708;49.466;11.176;2023-02-13T07:16:21;258.83;;;14.10;;
4698;SDS011;33708;49.466;11.176;2023-02-13T07:18:47;238.73;;;13.00;;
4698;SDS011;33708;49.466;11.176;2023-02-13T07:21:13;167.30;;;11.10;;
4698;SDS011;33708;49.466;11.176;2023-02-13T07:23:38;406.67;;;15.10;;
4698;SDS011;33708;49.466;11.176;2023-02-13T07:26:04;460.43;;;17.73;;
4698;SDS011;33708;49.466;11.176;2023-02-13T07:28:30;356.23;;;16.60;;
4698;SDS011;33708;49.466;11.176;2023-02-13T07:30:56;304.13;;;14.10;;
4698;SDS011;33708;49.466;11.176;2023-02-13T07:33:22;161.67;;;12.33;;
4698;SDS011;33708;49.466;11.176;2023-02-13T07:35:49;34.73;;;8.40;;
4698;SDS011;33708;49.466;11.176;2023-02-13T07:38:16;30.30;;;9.07;;
4698;SDS011;33708;49.466;11.176;2023-02-13T07:40:42;26.67;;;9.13;;
4698;SDS011;33708;49.466;11.176;2023-02-13T07:43:08;19.80;;;8.27;;
4698;SDS011;33708;49.466;11.176;2023-02-13T07:45:34;25.47;;;8.70;;
4698;SDS011;33708;49.466;11.176;2023-02-13T07:47:59;32.87;;;8.70;;
4698;SDS011;33708;49.466;11.176;2023-02-13T07:50:25;194.23;;;11.63;;
4698;SDS011;33708;49.466;11.176;2023-02-13T07:52:55;137.13;;;11.30;;
4698;SDS011;33708;49.466;11.176;2023-02-13T07:55:22;299.87;;;13.40;;
4698;SDS011;33708;49.466;11.176;2023-02-13T07:57:48;28.47;;;7.53;;
4698;SDS011;33708;49.466;11.176;2023-02-13T08:00:13;186.60;;;10.47;;
4698;SDS011;33708;49.466;11.176;2023-02-13T08:02:40;262.17;;;13.10;;
4698;SDS011;33708;49.466;11.176;2023-02-13T08:05:06;59.07;;;9.10;;
4698;SDS011;33708;49.466;11.176;2023-02-13T08:07:31;476.57;;;17.40;;
4698;SDS011;33708;49.466;11.176;2023-02-13T08:09:59;288.60;;;13.23;;
4698;SDS011;33708;49.466;11.176;2023-02-13T08:12:43;64.03;;;8.40;;
4698;SDS011;33708;49.466;11.176;2023-02-13T08:15:12;326.43;;;15.90;;
4698;SDS011;33708;49.466;11.176;2023-02-13T08:17:39;84.23;;;9.50;;
4698;SDS011;33708;49.466;11.176;2023-02-13T08:20:05;266.10;;;14.20;;
4698;SDS011;33708;49.466;11.176;2023-02-13T08:22:32;318.90;;;13.20;;
4698;SDS011;33708;49.466;11.176;2023-02-13T08:24:58;318.10;;;12.57;;
4698;SDS011;33708;49.466;11.176;2023-02-13T08:27:24;211.53;;;10.70;;
4698;SDS011;33708;49.466;11.176;2023-02-13T08:29:49;163.40;;;11.17;;
4698;SDS011;33708;49.466;11.176;2023-02-13T08:32:15;54.00;;;8.63;;
4698;SDS011;33708;49.466;11.176;2023-02-13T08:34:41;254.97;;;12.37;;
4698;SDS011;33708;49.466;11.176;2023-02-13T08:37:07;65.07;;;8.60;;
4698;SDS011;33708;49.466;11.176;2023-02-13T08:39:32;29.70;;;7.27;;
4698;SDS011;33708;49.466;11.176;2023-02-13T08:41:58;85.37;;;8.47;;
4698;SDS011;33708;49.466;11.176;2023-02-13T08:44:24;91.20;;;9.20;;
4698;SDS011;33708;49.466;11.176;2023-02-13T08:46:50;105.50;;;10.37;;
4698;SDS011;33708;49.466;11.176;2023-02-13T08:49:15;65.80;;;9.47;;
4698;SDS011;33708;49.466;11.176;2023-02-13T08:51:41;15.17;;;7.47;;
4698;SDS011;33708;49.466;11.176;2023-02-13T08:54:06;58.87;;;8.47;;
4698;SDS011;33708;49.466;11.176;2023-02-13T08:56:32;24.10;;;7.40;;
4698;SDS011;33708;49.466;11.176;2023-02-13T08:58:59;21.00;;;7.47;;
4698;SDS011;33708;49.466;11.176;2023-02-13T09:01:24;17.17;;;7.20;;
4698;SDS011;33708;49.466;11.176;2023-02-13T09:03:50;28.97;;;7.37;;
4698;SDS011;33708;49.466;11.176;2023-02-13T09:06:16;34.97;;;8.10;;
4698;SDS011;33708;49.466;11.176;2023-02-13T09:08:42;16.23;;;7.33;;
4698;SDS011;33708;49.466;11.176;2023-02-13T09:11:08;17.53;;;8.00;;
4698;SDS011;33708;49.466;11.176;2023-02-13T09:13:35;25.83;;;8.90;;
4698;SDS011;33708;49.466;11.176;2023-02-13T09:16:05;23.70;;;8.40;;
4698;SDS011;33708;49.466;11.176;2023-02-13T09:18:32;24.47;;;8.07;;
4698;SDS011;33708;49.466;11.176;2023-02-13T09:20:59;18.90;;;7.53;;
4698;SDS011;33708;49.466;11.176;2023-02-13T09:23:29;20.70;;;8.30;;
4698;SDS011;33708;49.466;11.176;2023-02-13T09:26:03;13.80;;;6.53;;
4698;SDS011;33708;49.466;11.176;2023-02-13T09:28:30;15.17;;;7.20;;
4698;SDS011;33708;49.466;11.176;2023-02-13T09:30:57;17.20;;;7.10;;
4698;SDS011;33708;49.466;11.176;2023-02-13T09:33:23;15.40;;;7.30;;
4698;SDS011;33708;49.466;11.176;2023-02-13T09:35:50;14.93;;;7.10;;
4698;SDS011;33708;49.466;11.176;2023-02-13T09:38:16;14.53;;;6.77;;
4698;SDS011;33708;49.466;11.176;2023-02-13T09:40:44;15.70;;;7.80;;
4698;SDS011;33708;49.466;11.176;2023-02-13T09:45:51;18.20;;;8.37;;
4698;SDS011;33708;49.466;11.176;2023-02-13T09:48:23;16.50;;;8.57;;
4698;SDS011;33708;49.466;11.176;2023-02-13T09:50:54;19.20;;;10.43;;
4698;SDS011;33708;49.466;11.176;2023-02-13T09:53:22;19.33;;;10.23;;
4698;SDS011;33708;49.466;11.176;2023-02-13T09:58:33;17.80;;;9.93;;
4698;SDS011;33708;49.466;11.176;2023-02-13T10:01:00;24.63;;;10.93;;
4698;SDS011;33708;49.466;11.176;2023-02-13T10:06:40;19.10;;;10.50;;
4698;SDS011;33708;49.466;11.176;2023-02-13T10:17:44;18.40;;;10.37;;
4698;SDS011;33708;49.466;11.176;2023-02-13T10:23:23;17.17;;;10.30;;
4698;SDS011;33708;49.466;11.176;2023-02-13T10:26:19;20.60;;;12.77;;
4698;SDS011;33708;49.466;11.176;2023-02-13T10:28:58;20.03;;;11.10;;
4698;SDS011;33708;49.466;11.176;2023-02-13T10:31:47;19.83;;;11.07;;
4698;SDS011;33708;49.466;11.176;2023-02-13T10:34:19;16.70;;;9.13;;
4698;SDS011;33708;49.466;11.176;2023-02-13T10:36:49;15.97;;;9.27;;
4698;SDS011;33708;49.466;11.176;2023-02-13T10:44:16;18.37;;;10.70;;
4698;SDS011;33708;49.466;11.176;2023-02-13T11:00:20;17.30;;;9.40;;
4698;SDS011;33708;49.466;11.176;2023-02-13T11:02:55;16.30;;;8.60;;
4698;SDS011;33708;49.466;11.176;2023-02-13T11:05:46;16.77;;;9.40;;
4698;SDS011;33708;49.466;11.176;2023-02-13T11:08:15;17.53;;;10.00;;
4698;SDS011;33708;49.466;11.176;2023-02-13T11:10:47;14.40;;;8.70;;
4698;SDS011;33708;49.466;11.176;2023-02-13T11:15:42;16.73;;;8.77;;
4698;SDS011;33708;49.466;11.176;2023-02-13T11:18:21;16.73;;;9.30;;
4698;SDS011;33708;49.466;11.176;2023-02-13T11:20:57;15.17;;;7.90;;
4698;SDS011;33708;49.466;11.176;2023-02-13T11:23:34;17.97;;;9.10;;
4698;SDS011;33708;49.466;11.176;2023-02-13T11:28:44;14.50;;;7.10;;
4698;SDS011;33708;49.466;11.176;2023-02-13T11:31:31;17.67;;;7.20;;
4698;SDS011;33708;49.466;11.176;2023-02-13T11:36:47;15.43;;;7.70;;
4698;SDS011;33708;49.466;11.176;2023-02-13T11:39:17;20.80;;;10.37;;
4698;SDS011;33708;49.466;11.176;2023-02-13T11:41:45;16.80;;;8.53;;
4698;SDS011;33708;49.466;11.176;2023-02-13T11:44:23;14.87;;;6.97;;
4698;SDS011;33708;49.466;11.176;2023-02-13T11:46:54;16.20;;;7.00;;
4698;SDS011;33708;49.466;11.176;2023-02-13T11:49:23;15.10;;;7.07;;
4698;SDS011;33708;49.466;11.176;2023-02-13T11:51:57;18.23;;;8.03;;
4698;SDS011;33708;49.466;11.176;2023-02-13T11:54:35;22.23;;;7.80;;
4698;SDS011;33708;49.466;11.176;2023-02-13T12:00:46;16.17;;;7.27;;
4698;SDS011;33708;49.466;11.176;2023-02-13T12:02:55;20.30;;;7.53;;
4698;SDS011;33708;49.466;11.176;2023-02-13T12:05:22;13.87;;;6.00;;
4698;SDS011;33708;49.466;11.176;2023-02-13T12:07:50;22.60;;;6.90;;
4698;SDS011;33708;49.466;11.176;2023-02-13T12:10:21;15.03;;;6.70;;
4698;SDS011;33708;49.466;11.176;2023-02-13T12:12:56;15.50;;;6.80;;
4698;SDS011;33708;49.466;11.176;2023-02-13T12:15:39;13.60;;;6.00;;
4698;SDS011;33708;49.466;11.176;2023-02-13T12:23:45;15.93;;;8.10;;
4698;SDS011;33708;49.466;11.176;2023-02-13T12:32:01;16.00;;;6.53;;
4698;SDS011;33708;49.466;11.176;2023-02-13T12:48:08;12.63;;;6.03;;
4698;SDS011;33708;49.466;11.176;2023-02-13T13:07:01;15.50;;;6.30;;
4698;SDS011;33708;49.466;11.176;2023-02-13T13:12:29;12.20;;;5.60;;
4698;SDS011;33708;49.466;11.176;2023-02-13T13:28:23;14.63;;;6.10;;
4698;SDS011;33708;49.466;11.176;2023-02-13T13:30:53;13.00;;;5.40;;
4698;SDS011;33708;49.466;11.176;2023-02-13T13:33:22;12.30;;;6.27;;
4698;SDS011;33708;49.466;11.176;2023-02-13T13:36:10;14.43;;;6.00;;
4698;SDS011;33708;49.466;11.176;2023-02-13T13:38:45;14.00;;;6.17;;
4698;SDS011;33708;49.466;11.176;2023-02-13T13:43:53;14.90;;;6.20;;
4698;SDS011;33708;49.466;11.176;2023-02-13T13:46:53;18.27;;;5.83;;
4698;SDS011;33708;49.466;11.176;2023-02-13T13:54:50;11.67;;;4.53;;
4698;SDS011;33708;49.466;11.176;2023-02-13T13:58:03;15.00;;;4.70;;
4698;SDS011;33708;49.466;11.176;2023-02-13T14:07:49;19.27;;;6.30;;
4698;SDS011;33708;49.466;11.176;2023-02-13T14:12:47;13.60;;;5.90;;
4698;SDS011;33708;49.466;11.176;2023-02-13T14:25:46;11.93;;;5.10;;
4698;SDS011;33708;49.466;11.176;2023-02-13T14:28:30;11.40;;;4.10;;
4698;SDS011;33708;49.466;11.176;2023-02-13T14:31:03;13.20;;;5.47;;
4698;SDS011;33708;49.466;11.176;2023-02-13T14:33:31;16.40;;;5.47;;
4698;SDS011;33708;49.466;11.176;2023-02-13T14:35:59;17.20;;;5.03;;
4698;SDS011;33708;49.466;11.176;2023-02-13T14:38:28;14.30;;;4.63;;
4698;SDS011;33708;49.466;11.176;2023-02-13T14:40:54;10.30;;;3.90;;
4698;SDS011;33708;49.466;11.176;2023-02-13T14:46:08;12.77;;;4.67;;
4698;SDS011;33708;49.466;11.176;2023-02-13T14:51:34;12.03;;;4.90;;
4698;SDS011;33708;49.466;11.176;2023-02-13T14:54:19;11.50;;;4.50;;
4698;SDS011;33708;49.466;11.176;2023-02-13T14:56:53;12.90;;;5.53;;
4698;SDS011;33708;49.466;11.176;2023-02-13T14:59:32;12.67;;;5.00;;
4698;SDS011;33708;49.466;11.176;2023-02-13T15:02:15;11.03;;;4.30;;
4698;SDS011;33708;49.466;11.176;2023-02-13T15:05:11;14.20;;;5.17;;
4698;SDS011;33708;49.466;11.176;2023-02-13T15:07:40;12.70;;;5.53;;
4698;SDS011;33708;49.466;11.176;2023-02-13T15:10:23;13.40;;;5.10;;
4698;SDS011;33708;49.466;11.176;2023-02-13T15:12:57;11.47;;;4.60;;
4698;SDS011;33708;49.466;11.176;2023-02-13T15:15:25;11.90;;;4.73;;
4698;SDS011;33708;49.466;11.176;2023-02-13T15:17:54;11.90;;;4.80;;
4698;SDS011;33708;49.466;11.176;2023-02-13T15:20:32;11.80;;;4.83;;
4698;SDS011;33708;49.466;11.176;2023-02-13T15:22:58;14.33;;;5.77;;
4698;SDS011;33708;49.466;11.176;2023-02-13T15:27:53;13.50;;;4.70;;
4698;SDS011;33708;49.466;11.176;2023-02-13T15:32:59;12.03;;;4.30;;
4698;SDS011;33708;49.466;11.176;2023-02-13T15:35:45;11.00;;;4.07;;
4698;SDS011;33708;49.466;11.176;2023-02-13T15:41:08;10.70;;;4.23;;
4698;SDS011;33708;49.466;11.176;2023-02-13T15:43:38;9.73;;;3.77;;
4698;SDS011;33708;49.466;11.176;2023-02-13T15:46:18;15.50;;;5.07;;
4698;SDS011;33708;49.466;11.176;2023-02-13T15:48:45;11.10;;;4.80;;
4698;SDS011;33708;49.466;11.176;2023-02-13T15:51:18;12.97;;;5.40;;
4698;SDS011;33708;49.466;11.176;2023-02-13T15:53:49;14.30;;;6.00;;
4698;SDS011;33708;49.466;11.176;2023-02-13T15:56:15;15.20;;;4.90;;
4698;SDS011;33708;49.466;11.176;2023-02-13T15:58:41;12.70;;;5.60;;
4698;SDS011;33708;49.466;11.176;2023-02-13T16:01:07;15.63;;;5.40;;
4698;SDS011;33708;49.466;11.176;2023-02-13T16:03:34;13.13;;;6.03;;
4698;SDS011;33708;49.466;11.176;2023-02-13T16:06:01;15.00;;;6.17;;
4698;SDS011;33708;49.466;11.176;2023-02-13T16:16:27;16.80;;;6.20;;
4698;SDS011;33708;49.466;11.176;2023-02-13T16:18:57;14.20;;;6.57;;
4698;SDS011;33708;49.466;11.176;2023-02-13T16:21:23;20.27;;;6.73;;
4698;SDS011;33708;49.466;11.176;2023-02-13T16:23:52;13.50;;;6.47;;
4698;SDS011;33708;49.466;11.176;2023-02-13T16:26:23;13.43;;;6.13;;
4698;SDS011;33708;49.466;11.176;2023-02-13T16:28:49;16.37;;;7.43;;
4698;SDS011;33708;49.466;11.176;2023-02-13T16:31:15;19.20;;;7.80;;
4698;SDS011;33708;49.466;11.176;2023-02-13T16:33:42;16.13;;;8.10;;
4698;SDS011;33708;49.466;11.176;2023-02-13T16:38:38;14.53;;;7.40;;
4698;SDS011;33708;49.466;11.176;2023-02-13T16:41:07;16.10;;;7.80;;
4698;SDS011;33708;49.466;11.176;2023-02-13T16:43:51;14.57;;;6.87;;
4698;SDS011;33708;49.466;11.176;2023-02-13T16:51:28;17.17;;;8.67;;
4698;SDS011;33708;49.466;11.176;2023-02-13T16:56:45;24.20;;;9.20;;
4698;SDS011;33708;49.466;11.176;2023-02-13T16:59:59;16.43;;;8.07;;
4698;SDS011;33708;49.466;11.176;2023-02-13T17:02:16;19.60;;;8.87;;
4698;SDS011;33708;49.466;11.176;2023-02-13T17:04:50;21.57;;;10.20;;
4698;SDS011;33708;49.466;11.176;2023-02-13T17:09:46;33.27;;;16.10;;
4698;SDS011;33708;49.466;11.176;2023-02-13T17:12:17;21.43;;;10.50;;
4698;SDS011;33708;49.466;11.176;2023-02-13T17:14:43;22.60;;;12.03;;
4698;SDS011;33708;49.466;11.176;2023-02-13T17:17:11;20.47;;;11.40;;
4698;SDS011;33708;49.466;11.176;2023-02-13T17:19:44;18.10;;;8.70;;
4698;SDS011;33708;49.466;11.176;2023-02-13T17:22:18;19.23;;;9.20;;
4698;SDS011;33708;49.466;11.176;2023-02-13T17:24:51;16.90;;;8.50;;
4698;SDS011;33708;49.466;11.176;2023-02-13T17:27:17;15.27;;;6.97;;
4698;SDS011;33708;49.466;11.176;2023-02-13T17:29:42;34.07;;;9.77;;
4698;SDS011;33708;49.466;11.176;2023-02-13T17:32:10;23.23;;;9.10;;
4698;SDS011;33708;49.466;11.176;2023-02-13T17:34:41;17.10;;;8.60;;
4698;SDS011;33708;49.466;11.176;2023-02-13T17:37:11;15.00;;;7.07;;
4698;SDS011;33708;49.466;11.176;2023-02-13T17:39:42;19.50;;;10.53;;
4698;SDS011;33708;49.466;11.176;2023-02-13T17:42:19;13.90;;;7.40;;
4698;SDS011;33708;49.466;11.176;2023-02-13T17:44:50;13.97;;;6.63;;
4698;SDS011;33708;49.466;11.176;2023-02-13T17:47:19;18.27;;;7.00;;
4698;SDS011;33708;49.466;11.176;2023-02-13T17:49:46;12.23;;;5.10;;
4698;SDS011;33708;49.466;11.176;2023-02-13T17:52:22;14.50;;;5.70;;
4698;SDS011;33708;49.466;11.176;2023-02-13T17:54:50;13.33;;;5.63;;
4698;SDS011;33708;49.466;11.176;2023-02-13T17:57:16;12.50;;;6.07;;
4698;SDS011;33708;49.466;11.176;2023-02-13T17:59:43;13.33;;;5.97;;
4698;SDS011;33708;49.466;11.176;2023-02-13T18:02:20;16.03;;;6.27;;
4698;SDS011;33708;49.466;11.176;2023-02-13T18:04:48;13.03;;;6.00;;
4698;SDS011;33708;49.466;11.176;2023-02-13T18:07:15;12.77;;;5.40;;
4698;SDS011;33708;49.466;11.176;2023-02-13T18:09:43;12.63;;;5.60;;
4698;SDS011;33708;49.466;11.176;2023-02-13T18:12:13;17.53;;;6.40;;